Aérodrome :
LOGIN :

S'inscrire | Disclaimer

   EN    FR    IT 

 










Légende :    VFR   VFR Marginal   IFR   IFR Intensif   IFR Très Intensif
Visi : 
Plafond : 
>= 8 km
>= 3000ft
5 à 8 km
1000 à 3000 ft
1500m à 5 km
500 à 1000 ft
800 à 1500m
200 à 500 ft
< 800m
< 200 ft
Symboles :   Orages  Brouillard  Fortes neiges  Fortes précipitations  Vent > 20 kt
SIGMETs :   Divers  Orages  Givrage  Turbulence  Onde Orograph.  Cendres Volcan.






- Altitude de l'aérodrome : 116 ft
- Code IATA : ISC


EGHE - Scilly Isles / St Mary's

DERNIER METAR :
  • 221650Z 23008KT 9999 FEW008 SCT018 17/15 Q1006

METARs EXPIRÉS :
  • 221620Z 22009KT 9999 FEW007 17/15 Q1007
  • 221550Z 22009KT 9999 FEW009 SCT015 17/15 Q1007
  • 221520Z 21010KT 9999 FEW009 SCT015 18/16 Q1008
  • 221450Z 22009KT 9999 BKN015 17/16 Q1008
  • 221420Z 21011KT 9999 BKN014 17/15 Q1008

TAF TAF EGHE
Valide du 22 à 15h jusqu'au 22 à 18h UTC


221357Z 2215/2218 20012KT 9999 SCT014
TEMPO 2215/2218 BKN012
PROB30
TEMPO 2215/2218 6000 SHRA BKN008



MET'MAP, la Météo Aéronautique d'un coup d'oeil ! - Copyright ORBIFLY Décembre 2007 - Disclaimer

ORBIFLY MET'MAP TEAM :

Programmation & Développement : Alexandra Zaïnal
Sur une idée originale de : Baudouin d'Aumeries
Assistance à la programmation : Marc-Olivier Méhu
Soutien technique & logistique : Manuel Goepfert

Contact : metmap@orbifly.com




SOURCES & CREDITS :

   NOAA